createdAt,value
2018-07-14T00:00:15.322Z,5.10
2018-07-14T00:04:09.368Z,5.07
2018-07-14T00:08:03.300Z,4.80
2018-07-14T00:11:57.328Z,5.30
2018-07-14T00:15:51.295Z,4.43
2018-07-14T00:19:45.054Z,5.40
2018-07-14T00:23:38.978Z,5.37
2018-07-14T00:27:32.960Z,5.60
2018-07-14T00:31:26.931Z,5.30
2018-07-14T00:35:21.061Z,5.17
2018-07-14T00:39:15.140Z,4.90
2018-07-14T00:43:09.220Z,4.63
2018-07-14T00:47:03.276Z,5.00
2018-07-14T00:50:57.300Z,5.27
2018-07-14T00:54:50.773Z,5.17
2018-07-14T00:58:44.726Z,5.23
2018-07-14T01:02:38.683Z,5.40
2018-07-14T01:06:32.718Z,5.00
2018-07-14T01:10:26.662Z,5.10
2018-07-14T01:14:20.635Z,5.80
2018-07-14T01:18:14.595Z,5.50
2018-07-14T01:22:08.625Z,5.53
2018-07-14T01:26:02.823Z,6.03
2018-07-14T01:29:56.804Z,5.27
2018-07-14T01:33:50.722Z,4.80
2018-07-14T01:37:44.869Z,6.10
2018-07-14T01:41:38.812Z,5.70
2018-07-14T01:45:32.811Z,5.47
2018-07-14T01:49:26.746Z,5.30
2018-07-14T01:53:20.632Z,5.73
2018-07-14T01:57:14.637Z,5.40
2018-07-14T02:01:08.248Z,5.33
2018-07-14T02:05:02.258Z,5.73
2018-07-14T02:08:58.221Z,6.30
2018-07-14T02:12:52.002Z,6.17
2018-07-14T02:16:45.839Z,5.73
2018-07-14T02:20:39.826Z,6.57
2018-07-14T02:24:33.723Z,5.93
2018-07-14T02:28:27.664Z,6.97
2018-07-14T02:32:21.810Z,6.67
2018-07-14T02:36:15.815Z,7.27
2018-07-14T02:40:09.683Z,6.43
2018-07-14T02:44:04.424Z,7.23
2018-07-14T02:47:58.381Z,8.33
2018-07-14T02:51:52.356Z,8.63
2018-07-14T02:55:45.814Z,9.50
2018-07-14T02:59:39.870Z,9.10
2018-07-14T03:03:33.866Z,8.97
2018-07-14T03:07:27.795Z,8.93
2018-07-14T03:11:21.752Z,9.33
2018-07-14T03:15:15.717Z,10.13
2018-07-14T03:19:09.691Z,9.83
2018-07-14T03:23:03.692Z,10.27
2018-07-14T03:26:57.638Z,10.03
2018-07-14T03:30:51.546Z,10.27
2018-07-14T03:34:45.611Z,10.03
2018-07-14T03:38:39.508Z,10.37
2018-07-14T03:42:33.491Z,11.63
2018-07-14T03:46:27.435Z,10.60
2018-07-14T03:50:21.412Z,11.37
2018-07-14T03:54:15.374Z,10.70
2018-07-14T03:58:09.078Z,10.57
2018-07-14T04:02:03.099Z,11.30
2018-07-14T04:05:57.995Z,11.83
2018-07-14T04:09:52.133Z,11.87
2018-07-14T04:13:46.096Z,12.63
2018-07-14T04:17:40.011Z,13.03
2018-07-14T04:21:33.958Z,12.40
2018-07-14T04:25:27.926Z,12.60
2018-07-14T04:29:21.654Z,12.37
2018-07-14T04:33:15.543Z,11.05
2018-07-14T04:37:09.513Z,12.27
2018-07-14T04:41:03.595Z,12.57
2018-07-14T04:44:57.511Z,11.90
2018-07-14T04:48:51.529Z,12.33
2018-07-14T04:52:45.487Z,12.60
2018-07-14T04:56:39.533Z,12.70
2018-07-14T05:00:33.584Z,12.53
2018-07-14T05:04:27.051Z,12.80
2018-07-14T05:08:21.023Z,12.53
2018-07-14T05:12:14.972Z,11.30
2018-07-14T05:16:08.965Z,12.35
2018-07-14T05:20:03.209Z,13.00
2018-07-14T05:23:57.232Z,12.47
2018-07-14T05:27:51.232Z,13.50
2018-07-14T05:31:45.129Z,13.50
2018-07-14T05:35:39.077Z,12.80
2018-07-14T05:39:33.003Z,13.40
2018-07-14T05:43:27.064Z,13.40
2018-07-14T05:47:21.261Z,13.40
2018-07-14T05:51:16.641Z,13.22
2018-07-14T05:55:10.149Z,12.87
2018-07-14T05:59:04.239Z,13.63
2018-07-14T06:02:58.216Z,13.73
2018-07-14T06:06:52.236Z,13.43
2018-07-14T06:10:46.203Z,14.33
2018-07-14T06:14:40.150Z,13.40
2018-07-14T06:18:34.210Z,13.50
2018-07-14T06:22:30.652Z,13.93
2018-07-14T06:26:30.071Z,14.63
2018-07-14T06:30:24.098Z,14.07
2018-07-14T06:34:18.133Z,13.27
2018-07-14T06:38:12.086Z,14.67
2018-07-14T06:42:06.231Z,15.13
2018-07-14T06:46:00.266Z,14.47
2018-07-14T06:49:54.415Z,15.07
2018-07-14T06:53:48.845Z,13.33
2018-07-14T06:57:42.356Z,13.03
2018-07-14T07:01:36.502Z,14.43
2018-07-14T07:05:31.185Z,13.00
2018-07-14T07:09:26.598Z,12.77
2018-07-14T07:13:21.750Z,13.35
2018-07-14T07:17:15.974Z,12.93
2018-07-14T07:21:09.952Z,14.27
2018-07-14T07:25:05.129Z,14.00
2018-07-14T07:28:59.041Z,13.23
2018-07-14T07:32:53.135Z,14.47
2018-07-14T07:36:47.395Z,14.27
2018-07-14T07:40:41.400Z,13.77
2018-07-14T07:44:36.494Z,13.57
2018-07-14T07:48:30.501Z,13.83
2018-07-14T07:52:24.498Z,16.30
2018-07-14T07:56:18.675Z,14.90
2018-07-14T08:00:12.771Z,14.73
2018-07-14T08:04:06.235Z,12.30
2018-07-14T08:08:00.199Z,14.10
2018-07-14T08:11:54.471Z,13.87
2018-07-14T08:15:48.406Z,11.70
2018-07-14T08:19:42.477Z,11.07
2018-07-14T08:23:36.636Z,10.97
2018-07-14T08:27:30.755Z,10.83
2018-07-14T08:31:25.206Z,12.45
2018-07-14T08:35:19.223Z,11.83
2018-07-14T08:39:13.151Z,11.50
2018-07-14T08:43:07.119Z,11.07
2018-07-14T08:47:01.379Z,11.83
2018-07-14T08:50:55.466Z,11.13
2018-07-14T08:54:49.565Z,10.37
2018-07-14T08:58:42.961Z,9.23
2018-07-14T09:02:37.161Z,10.13
2018-07-14T09:06:31.128Z,8.70
2018-07-14T09:10:25.231Z,9.13
2018-07-14T09:14:19.263Z,8.55
2018-07-14T09:18:13.308Z,7.87
2018-07-14T09:22:07.411Z,8.00
2018-07-14T09:26:01.593Z,8.60
2018-07-14T09:29:55.821Z,8.53
2018-07-14T09:33:50.092Z,8.60
2018-07-14T09:37:44.739Z,8.17
2018-07-14T09:41:38.787Z,8.50
2018-07-14T09:45:32.889Z,7.87
2018-07-14T09:49:27.256Z,8.17
2018-07-14T09:53:21.249Z,7.63
2018-07-14T09:57:15.419Z,8.37
2018-07-14T10:01:10.836Z,6.90
2018-07-14T10:05:04.328Z,7.80
2018-07-14T10:08:58.993Z,7.80
2018-07-14T10:12:53.117Z,7.40
2018-07-14T10:16:47.106Z,6.97
2018-07-14T10:20:39.968Z,9.57
2018-07-14T10:24:34.155Z,7.20
2018-07-14T10:28:28.094Z,7.80
2018-07-14T10:32:22.138Z,7.67
2018-07-14T10:36:16.629Z,7.60
2018-07-14T10:40:11.148Z,8.97
2018-07-14T10:44:05.216Z,7.87
2018-07-14T10:47:59.468Z,8.80
2018-07-14T10:51:53.497Z,8.10
2018-07-14T10:55:47.810Z,7.13
2018-07-14T10:59:41.323Z,7.80
2018-07-14T11:03:35.467Z,7.47
2018-07-14T11:07:30.028Z,8.40
2018-07-14T11:11:24.112Z,6.77
2018-07-14T11:15:18.300Z,7.17
2018-07-14T11:19:12.175Z,7.27
2018-07-14T11:23:06.122Z,7.37
2018-07-14T11:27:00.132Z,6.67
2018-07-14T11:30:54.173Z,6.87
2018-07-14T11:34:48.523Z,6.80
2018-07-14T11:38:44.059Z,6.73
2018-07-14T11:42:38.076Z,6.60
2018-07-14T11:46:32.032Z,7.40
2018-07-14T11:50:26.352Z,6.23
2018-07-14T11:54:20.859Z,7.23
2018-07-14T11:58:14.479Z,6.20
2018-07-14T12:02:08.760Z,7.20
2018-07-14T12:06:02.535Z,6.37
2018-07-14T12:09:58.087Z,5.60
2018-07-14T12:13:53.492Z,7.45
2018-07-14T12:17:48.095Z,6.03
2018-07-14T12:21:42.146Z,5.62
2018-07-14T12:25:36.577Z,6.40
2018-07-14T12:29:31.426Z,5.70
2018-07-14T12:33:26.013Z,4.63
2018-07-14T12:37:20.039Z,5.60
2018-07-14T12:41:14.299Z,4.90
2018-07-14T12:45:08.915Z,5.63
2018-07-14T12:49:03.194Z,4.90
2018-07-14T12:52:57.515Z,4.50
2018-07-14T12:56:51.777Z,4.30
2018-07-14T13:00:46.511Z,5.10
2018-07-14T13:04:44.220Z,4.20
2018-07-14T13:08:38.416Z,4.17
2018-07-14T13:12:32.641Z,3.43
2018-07-14T13:16:26.688Z,4.10
2018-07-14T13:20:20.714Z,3.40
2018-07-14T13:24:14.752Z,3.60
2018-07-14T13:28:12.313Z,4.43
2018-07-14T13:32:06.450Z,3.60
2018-07-14T13:36:00.507Z,4.53
2018-07-14T13:39:54.537Z,3.40
2018-07-14T13:43:48.550Z,3.30
2018-07-14T13:47:43.172Z,4.17
2018-07-14T13:51:37.256Z,3.23
2018-07-14T13:55:30.235Z,2.90
2018-07-14T13:59:23.724Z,2.90
2018-07-14T14:03:17.816Z,2.83
2018-07-14T14:07:11.806Z,3.17
2018-07-14T14:11:05.597Z,3.10
2018-07-14T14:14:59.597Z,3.50
2018-07-14T14:18:53.275Z,2.90
2018-07-14T14:22:47.187Z,3.92
2018-07-14T14:26:41.248Z,3.23
2018-07-14T14:30:36.223Z,2.47
2018-07-14T14:34:30.328Z,3.60
2018-07-14T14:38:24.406Z,2.47
2018-07-14T14:42:18.537Z,2.90
2018-07-14T14:46:14.579Z,3.70
2018-07-14T14:50:09.972Z,3.37
2018-07-14T14:54:04.267Z,2.47
2018-07-14T14:57:57.814Z,3.17
2018-07-14T15:01:51.973Z,4.08
2018-07-14T15:05:46.208Z,2.03
2018-07-14T15:09:40.280Z,1.85
2018-07-14T15:13:34.764Z,1.90
2018-07-14T15:17:29.114Z,2.40
2018-07-14T15:21:23.629Z,2.30
2018-07-14T15:25:19.220Z,2.15
2018-07-14T15:29:13.647Z,2.60
2018-07-14T15:33:08.119Z,1.90
2018-07-14T15:37:02.279Z,2.27
2018-07-14T15:40:56.748Z,2.37
2018-07-14T15:44:50.892Z,2.40
2018-07-14T15:48:45.153Z,2.40
2018-07-14T15:53:08.474Z,2.02
2018-07-14T15:57:04.816Z,2.35
2018-07-14T16:00:59.054Z,2.25
2018-07-14T16:04:53.290Z,2.50
2018-07-14T16:08:47.433Z,2.30
2018-07-14T16:12:43.512Z,2.25
2018-07-14T16:16:40.086Z,2.34
2018-07-14T16:20:34.949Z,2.40
2018-07-14T16:24:29.026Z,2.62
2018-07-14T16:28:23.260Z,2.50
2018-07-14T16:32:17.334Z,2.50
2018-07-14T16:36:11.333Z,2.40
2018-07-14T16:40:05.524Z,2.50
2018-07-14T16:43:59.642Z,2.58
2018-07-14T16:47:53.791Z,2.30
2018-07-14T16:51:48.397Z,2.10
2018-07-14T16:55:43.034Z,2.63
2018-07-14T16:59:36.479Z,2.23
2018-07-14T17:03:30.491Z,2.22
2018-07-14T17:07:24.824Z,2.40
2018-07-14T17:11:19.216Z,3.03
2018-07-14T17:15:17.058Z,2.03
2018-07-14T17:19:12.471Z,2.35
2018-07-14T17:23:06.823Z,2.20
2018-07-14T17:27:01.658Z,2.53
2018-07-14T17:30:55.734Z,2.27
2018-07-14T17:34:50.123Z,2.27
2018-07-14T17:38:44.205Z,2.93
2018-07-14T17:42:38.502Z,2.42
2018-07-14T17:46:32.589Z,2.45
2018-07-14T17:50:26.748Z,2.33
2018-07-14T17:54:20.899Z,2.20
2018-07-14T17:58:14.377Z,3.00
2018-07-14T18:02:08.760Z,3.07
2018-07-14T18:06:03.893Z,3.07
2018-07-14T18:09:58.290Z,2.70
2018-07-14T18:13:52.276Z,2.70
2018-07-14T18:17:46.381Z,2.63
2018-07-14T18:21:40.459Z,2.80
2018-07-14T18:25:35.787Z,2.73
2018-07-14T18:29:30.099Z,2.97
2018-07-14T18:33:28.141Z,2.60
2018-07-14T18:37:22.634Z,2.60
2018-07-14T18:41:18.707Z,2.17
2018-07-14T18:45:12.689Z,2.43
2018-07-14T18:49:06.861Z,2.60
2018-07-14T18:53:00.955Z,2.73
2018-07-14T18:56:55.322Z,3.07
2018-07-14T19:00:48.726Z,2.98
2018-07-14T19:04:42.734Z,2.10
2018-07-14T19:08:36.721Z,2.57
2018-07-14T19:12:30.889Z,2.47
2018-07-14T19:16:24.695Z,2.10
2018-07-14T19:20:18.612Z,2.47
2018-07-14T19:24:12.559Z,4.07
2018-07-14T19:28:06.598Z,3.43
2018-07-14T19:32:00.741Z,3.23
2018-07-14T19:35:54.729Z,2.73
2018-07-14T19:39:48.734Z,2.67
2018-07-14T19:43:42.765Z,2.63
2018-07-14T19:47:36.758Z,3.30
2018-07-14T19:51:30.779Z,2.90
2018-07-14T19:55:24.683Z,2.50
2018-07-14T19:59:18.668Z,2.77
2018-07-14T20:03:12.783Z,2.60
2018-07-14T20:07:06.849Z,2.50
2018-07-14T20:11:00.265Z,2.90
2018-07-14T20:14:54.198Z,2.80
2018-07-14T20:18:48.135Z,3.40
2018-07-14T20:22:42.147Z,3.20
2018-07-14T20:26:36.083Z,3.00
2018-07-14T20:30:30.025Z,2.93
2018-07-14T20:34:24.022Z,3.20
2018-07-14T20:38:17.988Z,3.10
2018-07-14T20:42:12.150Z,3.10
2018-07-14T20:46:06.243Z,3.10
2018-07-14T20:50:00.236Z,3.53
2018-07-14T20:53:55.064Z,2.07
2018-07-14T20:57:48.894Z,2.00
2018-07-14T21:01:41.657Z,2.50
2018-07-14T21:05:35.547Z,1.80
2018-07-14T21:09:29.583Z,2.10
2018-07-14T21:13:23.527Z,2.63
2018-07-14T21:17:17.582Z,2.47
2018-07-14T21:21:11.611Z,2.13
2018-07-14T21:25:05.649Z,2.17
2018-07-14T21:28:59.565Z,4.30
2018-07-14T21:32:53.584Z,4.07
2018-07-14T21:36:47.502Z,4.03
2018-07-14T21:40:41.477Z,3.43
2018-07-14T21:44:35.435Z,6.60
2018-07-14T21:48:29.365Z,4.80
2018-07-14T21:52:23.416Z,2.93
2018-07-14T21:56:16.828Z,3.00
2018-07-14T22:00:21.821Z,5.03
2018-07-14T22:04:15.804Z,2.70
2018-07-14T22:08:09.770Z,5.50
2018-07-14T22:12:03.750Z,3.43
2018-07-14T22:15:58.123Z,2.40
2018-07-14T22:19:52.066Z,2.20
2018-07-14T22:23:46.347Z,2.70
2018-07-14T22:27:40.414Z,2.43
2018-07-14T22:31:34.325Z,3.87
2018-07-14T22:35:28.420Z,1.80
2018-07-14T22:39:22.369Z,3.67
2018-07-14T22:43:16.304Z,2.50
2018-07-14T22:47:10.232Z,2.20
2018-07-14T22:51:04.191Z,2.10
2018-07-14T22:54:58.231Z,2.33
2018-07-14T22:58:52.321Z,2.40
2018-07-14T23:02:46.563Z,2.70
2018-07-14T23:06:40.573Z,2.50
2018-07-14T23:10:33.972Z,2.50
2018-07-14T23:14:28.044Z,2.40
2018-07-14T23:18:22.006Z,2.30
2018-07-14T23:22:16.043Z,3.57
2018-07-14T23:26:09.980Z,2.50
2018-07-14T23:30:03.983Z,2.00
2018-07-14T23:33:58.059Z,2.10
2018-07-14T23:37:52.605Z,2.20
2018-07-14T23:41:47.146Z,2.20
2018-07-14T23:45:41.029Z,2.47
2018-07-14T23:49:35.014Z,2.10
2018-07-14T23:53:29.891Z,2.40
2018-07-14T23:57:23.299Z,2.50
